Time;durP1;ratioP1;P1;durP2;ratioP2;P2;SDS_P1;SDS_P2;PMS_P1;PMS_P2;Temp;Humidity;BMP_temperature;BMP_pressure;BME280_temperature;BME280_humidity;BME280_pressure;Samples;Min_cycle;Max_cycle;Signal;HPM_P1;HPM_P2
2023/07/27 00:00:27;;;;;;;2.53;2.33;;;20.60;58.90;;;;;;5133169;28;20245;-63
2023/07/27 00:02:52;;;;;;;2.40;2.20;;;20.60;58.90;;;;;;5133064;28;20599;-64
2023/07/27 00:05:18;;;;;;;3.15;2.30;;;20.60;58.90;;;;;;5130640;28;20179;-64
2023/07/27 00:07:43;;;;;;;2.88;2.22;;;20.60;58.90;;;;;;5112655;28;20177;-64
2023/07/27 00:10:09;;;;;;;4.40;2.17;;;20.60;59.00;;;;;;5112211;28;20173;-63
2023/07/27 00:12:34;;;;;;;2.55;2.35;;;20.60;59.60;;;;;;5111466;28;20180;-63
2023/07/27 00:15:00;;;;;;;2.63;2.42;;;20.60;59.60;;;;;;5111773;28;20643;-63
2023/07/27 00:17:25;;;;;;;2.53;2.25;;;20.60;59.00;;;;;;5112267;28;20208;-63
2023/07/27 00:19:51;;;;;;;4.65;2.67;;;20.50;59.00;;;;;;5111721;28;20211;-63
2023/07/27 00:22:16;;;;;;;4.53;2.40;;;20.60;59.70;;;;;;5112246;28;20559;-64
2023/07/27 00:24:42;;;;;;;4.68;2.40;;;20.60;59.10;;;;;;5111939;28;20169;-63
2023/07/27 00:27:08;;;;;;;3.88;2.88;;;20.60;59.10;;;;;;5126651;28;20184;-63
2023/07/27 00:29:33;;;;;;;2.42;2.22;;;20.60;59.10;;;;;;5131984;28;20173;-63
2023/07/27 00:31:59;;;;;;;3.50;2.13;;;20.60;59.00;;;;;;5131768;28;20167;-64
2023/07/27 00:34:24;;;;;;;2.97;2.20;;;20.60;59.10;;;;;;5130193;28;20217;-64
2023/07/27 00:36:50;;;;;;;2.78;2.30;;;20.60;59.20;;;;;;5125629;27;20203;-64
2023/07/27 00:39:15;;;;;;;3.58;2.70;;;20.60;59.10;;;;;;5113895;27;20181;-64
2023/07/27 00:41:41;;;;;;;2.67;2.40;;;20.60;59.20;;;;;;5114622;28;20196;-64
2023/07/27 00:44:07;;;;;;;3.63;2.30;;;20.60;59.20;;;;;;5114159;28;20180;-63
2023/07/27 00:46:33;;;;;;;3.17;2.88;;;20.60;59.20;;;;;;5126082;27;20617;-63
2023/07/27 00:48:58;;;;;;;3.05;2.25;;;20.60;59.20;;;;;;5110195;27;20191;-62
2023/07/27 00:51:24;;;;;;;3.53;2.40;;;20.60;59.20;;;;;;5134995;27;20173;-63
2023/07/27 00:53:50;;;;;;;2.97;2.25;;;20.50;59.20;;;;;;5099019;27;20201;-63
2023/07/27 00:56:15;;;;;;;3.30;3.00;;;20.60;59.90;;;;;;5125822;27;20215;-63
2023/07/27 00:58:41;;;;;;;3.28;2.95;;;20.50;59.20;;;;;;5122526;27;20596;-63
2023/07/27 01:01:07;;;;;;;3.38;2.67;;;20.50;59.30;;;;;;5089986;28;20180;-64
2023/07/27 01:03:32;;;;;;;2.38;2.13;;;20.60;59.90;;;;;;5116073;27;20169;-64
2023/07/27 01:05:58;;;;;;;3.47;2.47;;;20.60;59.30;;;;;;5095952;28;20177;-64
2023/07/27 01:08:23;;;;;;;3.10;2.78;;;20.50;59.30;;;;;;5095091;28;20180;-63
2023/07/27 01:11:31;;;;;;;4.88;2.42;;;20.50;59.20;;;;;;5113845;28;20173;-63
2023/07/27 01:14:11;;;;;;;2.97;2.28;;;20.50;59.30;;;;;;5043049;28;20552;-63
2023/07/27 01:16:39;;;;;;;2.38;2.10;;;20.60;59.30;;;;;;5102166;28;20225;-63
2023/07/27 01:19:26;;;;;;;2.83;2.58;;;20.50;59.30;;;;;;5095462;28;20555;-63
2023/07/27 01:21:59;;;;;;;2.60;2.40;;;20.50;59.90;;;;;;5113188;28;20689;-63
2023/07/27 01:24:39;;;;;;;2.90;2.40;;;20.50;59.30;;;;;;5103239;28;20219;-62
2023/07/27 01:27:20;;;;;;;3.08;2.78;;;20.50;59.30;;;;;;5096893;28;20169;-63
2023/07/27 01:29:59;;;;;;;2.95;2.70;;;20.60;59.30;;;;;;5094957;28;20178;-63
2023/07/27 01:32:25;;;;;;;2.65;2.28;;;20.50;59.30;;;;;;5097081;28;20269;-64
2023/07/27 01:34:52;;;;;;;2.50;2.20;;;20.50;59.40;;;;;;5107417;27;20679;-64
2023/07/27 01:37:17;;;;;;;2.80;2.60;;;20.50;59.40;;;;;;5115986;27;20180;-65
2023/07/27 01:39:47;;;;;;;4.97;1.95;;;20.50;59.50;;;;;;5116722;27;20223;-64
2023/07/27 01:42:13;;;;;;;3.42;2.20;;;20.50;59.40;;;;;;5100151;27;20192;-63
2023/07/27 01:44:39;;;;;;;4.22;2.58;;;20.50;59.50;;;;;;5105706;28;20268;-64
2023/07/27 01:47:04;;;;;;;2.28;2.08;;;20.50;59.50;;;;;;5099582;27;20692;-64
2023/07/27 01:49:30;;;;;;;3.50;2.30;;;20.50;59.50;;;;;;5115723;27;20255;-63
2023/07/27 01:51:56;;;;;;;2.45;2.28;;;20.50;59.50;;;;;;5099240;27;20180;-63
2023/07/27 01:54:22;;;;;;;2.60;2.25;;;20.50;59.50;;;;;;5133711;27;20196;-63
2023/07/27 01:56:47;;;;;;;2.42;2.22;;;20.50;60.30;;;;;;5098093;27;20172;-64
2023/07/27 01:59:13;;;;;;;3.15;2.35;;;20.50;59.50;;;;;;5112855;27;20165;-64
2023/07/27 02:01:42;;;;;;;2.22;2.03;;;20.40;59.60;;;;;;5099913;27;20176;-65
2023/07/27 02:04:08;;;;;;;2.78;2.10;;;20.50;59.60;;;;;;5133938;27;20177;-64
2023/07/27 02:06:33;;;;;;;2.80;2.50;;;20.40;59.60;;;;;;5134920;27;20194;-64
2023/07/27 02:08:59;;;;;;;2.20;2.00;;;20.50;59.60;;;;;;5133865;27;20208;-63
2023/07/27 02:11:24;;;;;;;2.30;2.05;;;20.50;59.60;;;;;;5125307;27;20168;-62
2023/07/27 02:14:06;;;;;;;2.00;1.90;;;20.50;59.60;;;;;;5116678;27;20627;-63
2023/07/27 02:16:41;;;;;;;2.55;2.20;;;20.50;59.70;;;;;;5117467;27;20218;-64
2023/07/27 02:19:09;;;;;;;2.33;2.05;;;20.50;59.70;;;;;;5115659;27;20252;-64
2023/07/27 02:21:35;;;;;;;2.08;1.92;;;20.50;60.50;;;;;;5103678;28;20524;-65
2023/07/27 02:24:00;;;;;;;2.70;2.45;;;20.50;59.70;;;;;;5095511;28;20179;-64
2023/07/27 02:26:26;;;;;;;2.28;2.08;;;20.50;59.80;;;;;;5119795;27;20686;-64
2023/07/27 02:28:53;;;;;;;2.72;2.53;;;20.50;59.80;;;;;;5101966;28;20584;-64
2023/07/27 02:31:18;;;;;;;3.50;2.53;;;20.50;59.80;;;;;;5113755;28;20183;-64
2023/07/27 02:33:44;;;;;;;4.60;2.28;;;20.50;59.80;;;;;;5113248;28;20170;-66
2023/07/27 02:36:09;;;;;;;2.47;2.20;;;20.50;60.60;;;;;;5113465;28;20285;-66
2023/07/27 02:38:35;;;;;;;3.53;2.40;;;20.50;59.90;;;;;;5121320;27;20197;-65
2023/07/27 02:41:01;;;;;;;2.60;2.40;;;20.40;59.80;;;;;;5112458;28;20270;-66
2023/07/27 02:43:26;;;;;;;2.85;2.58;;;20.50;60.00;;;;;;5113737;28;20172;-65
2023/07/27 02:45:58;;;;;;;3.03;2.38;;;20.40;59.90;;;;;;5111579;28;20181;-65
2023/07/27 02:48:23;;;;;;;2.13;1.90;;;20.40;59.90;;;;;;5112708;27;20185;-64
2023/07/27 02:50:50;;;;;;;2.50;2.30;;;20.40;59.90;;;;;;5112868;28;20507;-64
2023/07/27 02:53:16;;;;;;;2.47;2.28;;;20.40;60.00;;;;;;5112343;28;20655;-64
2023/07/27 02:55:41;;;;;;;2.47;2.28;;;20.40;60.00;;;;;;5113198;28;20219;-64
2023/07/27 02:58:07;;;;;;;2.00;1.90;;;20.40;59.90;;;;;;5113005;27;20589;-65
2023/07/27 03:00:32;;;;;;;2.20;1.90;;;20.40;60.00;;;;;;5112207;28;20576;-65
2023/07/27 03:03:00;;;;;;;2.90;2.60;;;20.40;60.00;;;;;;5113092;28;20177;-65
2023/07/27 03:05:26;;;;;;;2.78;2.58;;;20.40;60.10;;;;;;5113227;28;20184;-65
2023/07/27 03:07:52;;;;;;;2.53;2.30;;;20.40;60.00;;;;;;5121225;27;20176;-64
2023/07/27 03:10:20;;;;;;;2.97;2.40;;;20.40;60.00;;;;;;5133780;27;20173;-65
2023/07/27 03:12:45;;;;;;;3.38;2.63;;;20.40;60.10;;;;;;5133898;27;20213;-64
2023/07/27 03:15:11;;;;;;;2.97;2.58;;;20.40;60.20;;;;;;5124174;27;20216;-64
2023/07/27 03:17:36;;;;;;;2.65;2.05;;;20.40;60.10;;;;;;5120282;27;20181;-64
2023/07/27 03:20:02;;;;;;;2.88;2.35;;;20.40;60.10;;;;;;5112683;28;20208;-64
2023/07/27 03:22:27;;;;;;;2.47;2.28;;;20.40;60.10;;;;;;5112363;28;20165;-64
2023/07/27 03:24:53;;;;;;;2.78;2.35;;;20.40;60.20;;;;;;5112953;28;20169;-64
2023/07/27 03:27:19;;;;;;;2.42;2.20;;;20.40;60.10;;;;;;5112566;28;20624;-64
2023/07/27 03:29:44;;;;;;;3.25;2.20;;;20.40;60.20;;;;;;5112257;28;20171;-64
2023/07/27 03:32:10;;;;;;;3.30;2.50;;;20.40;60.20;;;;;;5113027;27;20263;-64
2023/07/27 03:34:35;;;;;;;2.63;2.40;;;20.40;60.20;;;;;;5112795;28;20311;-65
2023/07/27 03:37:01;;;;;;;2.55;2.35;;;20.40;60.30;;;;;;5121006;27;20183;-65
2023/07/27 03:39:26;;;;;;;2.53;2.30;;;20.40;60.20;;;;;;5133345;27;20659;-65
2023/07/27 03:41:52;;;;;;;2.70;2.50;;;20.40;60.30;;;;;;5133727;27;20263;-66
2023/07/27 03:44:17;;;;;;;3.10;2.70;;;20.40;60.40;;;;;;5132614;27;20172;-65
2023/07/27 03:46:43;;;;;;;3.13;2.47;;;20.40;60.30;;;;;;5132930;27;20203;-64
2023/07/27 03:49:09;;;;;;;2.65;2.45;;;20.40;60.40;;;;;;5113081;28;20632;-63
2023/07/27 03:51:34;;;;;;;2.83;2.63;;;20.40;60.30;;;;;;5112682;28;20177;-63
2023/07/27 03:54:00;;;;;;;3.00;2.35;;;20.40;60.40;;;;;;5112424;28;20230;-63
2023/07/27 03:56:25;;;;;;;2.40;2.13;;;20.40;60.40;;;;;;5112861;28;20223;-63
2023/07/27 03:58:51;;;;;;;2.25;2.05;;;20.40;60.40;;;;;;5127803;28;20224;-64
2023/07/27 04:01:16;;;;;;;3.08;2.25;;;20.30;60.40;;;;;;5132920;28;20461;-64
2023/07/27 04:03:42;;;;;;;3.75;2.40;;;20.40;60.50;;;;;;5132380;28;20261;-64
2023/07/27 04:06:07;;;;;;;3.08;2.78;;;20.30;60.50;;;;;;5131977;28;20221;-63
2023/07/27 04:08:33;;;;;;;2.47;2.20;;;20.30;60.50;;;;;;5120209;28;20169;-64
2023/07/27 04:10:58;;;;;;;2.90;2.47;;;20.30;60.40;;;;;;5113974;28;20225;-63
2023/07/27 04:13:24;;;;;;;2.47;2.10;;;20.30;60.50;;;;;;5116769;28;20169;-63
2023/07/27 04:15:50;;;;;;;2.60;2.40;;;20.30;60.50;;;;;;5116579;28;20303;-63
2023/07/27 04:18:15;;;;;;;2.90;2.50;;;20.30;60.60;;;;;;5125425;27;20229;-63
2023/07/27 04:20:41;;;;;;;2.97;2.55;;;20.30;60.50;;;;;;5136203;27;20176;-63
2023/07/27 04:23:06;;;;;;;2.70;2.50;;;20.30;60.50;;;;;;5115353;28;20226;-63
2023/07/27 04:25:32;;;;;;;2.85;2.22;;;20.30;60.60;;;;;;5115789;28;20173;-63
2023/07/27 04:27:57;;;;;;;6.63;3.13;;;20.30;60.60;;;;;;5130738;27;20268;-63
2023/07/27 04:30:23;;;;;;;2.72;2.13;;;20.30;60.60;;;;;;5136113;27;20172;-63
2023/07/27 04:32:48;;;;;;;2.83;2.50;;;20.30;60.60;;;;;;5126872;27;20269;-64
2023/07/27 04:35:14;;;;;;;2.92;2.72;;;20.30;60.60;;;;;;5121371;27;20235;-64
2023/07/27 04:37:39;;;;;;;2.38;2.17;;;20.30;60.80;;;;;;5115992;28;20627;-64
2023/07/27 04:40:06;;;;;;;3.30;2.58;;;20.30;60.70;;;;;;5114756;28;20236;-65
2023/07/27 04:42:31;;;;;;;3.08;2.63;;;20.30;60.80;;;;;;5115444;28;20196;-64
2023/07/27 04:44:57;;;;;;;2.30;2.10;;;20.30;60.80;;;;;;5120925;27;20651;-64
2023/07/27 04:47:22;;;;;;;4.50;2.50;;;20.30;60.80;;;;;;5135709;27;20186;-64
2023/07/27 04:49:49;;;;;;;2.50;2.30;;;20.30;61.60;;;;;;5135732;27;20287;-63
2023/07/27 04:52:15;;;;;;;2.65;2.17;;;20.30;60.80;;;;;;5135982;27;20801;-63
2023/07/27 04:54:40;;;;;;;2.67;2.47;;;20.30;60.80;;;;;;5134443;27;20245;-63
2023/07/27 04:57:06;;;;;;;2.50;2.30;;;20.30;60.90;;;;;;5135740;27;20188;-64
2023/07/27 04:59:31;;;;;;;3.03;2.72;;;20.30;60.80;;;;;;5135594;27;20177;-64
2023/07/27 05:01:57;;;;;;;2.25;2.05;;;20.30;60.80;;;;;;5135857;27;20168;-64
2023/07/27 05:04:23;;;;;;;2.45;2.20;;;20.30;60.80;;;;;;5133502;27;20218;-64
2023/07/27 05:06:48;;;;;;;2.55;2.33;;;20.30;60.90;;;;;;5114501;28;20181;-64
2023/07/27 05:09:14;;;;;;;2.17;1.98;;;20.30;60.80;;;;;;5128465;27;20606;-63
2023/07/27 05:11:39;;;;;;;2.55;2.03;;;20.20;60.90;;;;;;5135251;27;20169;-63
2023/07/27 05:14:05;;;;;;;2.30;2.10;;;20.30;61.00;;;;;;5134341;27;20196;-63
2023/07/27 05:16:31;;;;;;;3.17;2.67;;;20.20;60.90;;;;;;5117338;27;20613;-63
2023/07/27 05:18:57;;;;;;;2.42;2.22;;;20.30;61.80;;;;;;5114703;28;20648;-64
2023/07/27 05:21:23;;;;;;;2.47;2.28;;;20.30;61.00;;;;;;5114551;28;20188;-64
2023/07/27 05:23:49;;;;;;;2.35;2.13;;;20.30;61.00;;;;;;5116120;27;20562;-64
2023/07/27 05:26:15;;;;;;;2.55;2.28;;;20.30;60.90;;;;;;5114953;28;20180;-63
2023/07/27 05:28:40;;;;;;;2.05;1.88;;;20.30;61.00;;;;;;5114557;28;20536;-63
2023/07/27 05:31:07;;;;;;;2.72;2.30;;;20.30;61.00;;;;;;5114949;28;20165;-64
2023/07/27 05:33:32;;;;;;;2.30;2.10;;;20.30;61.00;;;;;;5115086;28;20640;-65
2023/07/27 05:35:58;;;;;;;3.08;2.20;;;20.30;61.00;;;;;;5114250;28;20213;-66
2023/07/27 05:38:23;;;;;;;2.33;2.13;;;20.30;61.00;;;;;;5115225;28;20169;-65
2023/07/27 05:40:49;;;;;;;2.45;2.00;;;20.30;61.00;;;;;;5113947;28;20245;-65
2023/07/27 05:43:15;;;;;;;2.30;2.10;;;20.30;61.10;;;;;;5113677;28;20572;-65
2023/07/27 05:45:40;;;;;;;2.17;1.98;;;20.30;61.10;;;;;;5125088;27;20188;-65
2023/07/27 05:48:06;;;;;;;2.15;1.95;;;20.30;61.00;;;;;;5134153;27;20168;-64
2023/07/27 05:50:32;;;;;;;2.55;2.10;;;20.30;61.10;;;;;;5134528;27;20479;-65
2023/07/27 05:52:58;;;;;;;2.45;2.25;;;20.30;61.10;;;;;;5135263;27;20176;-64
2023/07/27 05:55:26;;;;;;;2.20;2.00;;;20.30;61.10;;;;;;5118534;27;20193;-64
2023/07/27 05:57:52;;;;;;;3.17;2.20;;;20.30;61.10;;;;;;5113581;28;20251;-65
2023/07/27 06:00:18;;;;;;;2.85;2.40;;;20.30;61.10;;;;;;5113371;28;20182;-65
2023/07/27 06:02:43;;;;;;;2.22;2.03;;;20.30;61.10;;;;;;5112703;28;20241;-66
2023/07/27 06:05:10;;;;;;;2.28;2.00;;;20.20;61.10;;;;;;5120496;27;20220;-65
2023/07/27 06:07:36;;;;;;;2.30;2.10;;;20.30;61.20;;;;;;5135057;27;20180;-64
2023/07/27 06:10:05;;;;;;;2.13;1.85;;;20.20;61.10;;;;;;5133850;27;20176;-65
2023/07/27 06:12:30;;;;;;;2.05;1.88;;;20.30;61.20;;;;;;5134944;27;20252;-64
2023/07/27 06:14:57;;;;;;;3.05;2.10;;;20.30;61.20;;;;;;5131024;27;20764;-64
2023/07/27 06:17:22;;;;;;;2.38;2.17;;;20.30;61.20;;;;;;5113410;28;20595;-64
2023/07/27 06:19:48;;;;;;;2.50;2.08;;;20.20;61.20;;;;;;5114097;28;20181;-64
2023/07/27 06:22:17;;;;;;;2.40;2.20;;;20.20;61.20;;;;;;5113973;28;20571;-64
2023/07/27 06:24:42;;;;;;;2.28;2.08;;;20.20;62.00;;;;;;5113575;28;20509;-64
2023/07/27 06:27:11;;;;;;;2.20;2.08;;;20.20;61.20;;;;;;5113944;28;20214;-64
2023/07/27 06:29:36;;;;;;;2.28;1.80;;;20.30;61.30;;;;;;5115106;27;20645;-63
2023/07/27 06:32:02;;;;;;;2.17;1.98;;;20.30;61.30;;;;;;5113182;28;20176;-65
2023/07/27 06:34:28;;;;;;;3.33;2.30;;;20.20;61.20;;;;;;5112352;28;20552;-65
2023/07/27 06:36:53;;;;;;;1.95;1.85;;;20.20;61.20;;;;;;5113779;28;20196;-65
2023/07/27 06:39:19;;;;;;;1.73;1.63;;;20.20;61.20;;;;;;5112730;28;20192;-64
2023/07/27 06:41:47;;;;;;;1.98;1.88;;;20.20;61.20;;;;;;5113812;28;20645;-65
2023/07/27 06:44:13;;;;;;;1.88;1.77;;;20.30;61.30;;;;;;5113280;27;20176;-65
2023/07/27 06:46:39;;;;;;;2.53;2.33;;;20.30;61.40;;;;;;5113994;27;20181;-64
2023/07/27 06:49:04;;;;;;;2.42;2.22;;;20.30;61.30;;;;;;5113323;28;20177;-63
2023/07/27 06:51:30;;;;;;;2.35;2.15;;;20.20;61.20;;;;;;5095461;28;20180;-63
2023/07/27 06:53:55;;;;;;;2.05;1.85;;;20.20;61.30;;;;;;5112393;28;20583;-63
2023/07/27 06:56:21;;;;;;;2.00;1.85;;;20.20;61.30;;;;;;5127049;27;20204;-64
2023/07/27 06:58:47;;;;;;;3.17;1.75;;;20.20;61.30;;;;;;5134007;27;20183;-64
2023/07/27 07:01:12;;;;;;;2.03;1.90;;;20.20;61.20;;;;;;5133250;27;20169;-64
2023/07/27 07:03:38;;;;;;;2.95;1.80;;;20.20;61.20;;;;;;5134079;27;20161;-64
2023/07/27 07:06:03;;;;;;;2.42;1.98;;;20.20;61.30;;;;;;5120243;27;20640;-65
2023/07/27 07:08:29;;;;;;;1.83;1.70;;;20.20;61.30;;;;;;5114903;28;20666;-63
2023/07/27 07:10:55;;;;;;;2.15;1.90;;;20.20;61.30;;;;;;5133702;27;20263;-64
2023/07/27 07:13:21;;;;;;;1.80;1.70;;;20.30;61.40;;;;;;5133203;27;20964;-63
2023/07/27 07:15:48;;;;;;;2.00;1.70;;;20.20;61.40;;;;;;5124967;27;20745;-64
2023/07/27 07:18:14;;;;;;;1.95;1.63;;;20.20;61.40;;;;;;5112911;28;20181;-64
2023/07/27 07:20:39;;;;;;;1.67;1.58;;;20.20;61.40;;;;;;5112502;28;20646;-64
2023/07/27 07:23:05;;;;;;;2.90;1.70;;;20.20;61.50;;;;;;5112782;28;20531;-63
2023/07/27 07:25:30;;;;;;;1.73;1.63;;;20.20;61.40;;;;;;5117834;27;20547;-63
2023/07/27 07:27:56;;;;;;;1.90;1.77;;;20.20;61.40;;;;;;5132390;27;20169;-64
2023/07/27 07:30:22;;;;;;;1.73;1.63;;;20.20;62.30;;;;;;5133694;27;20164;-63
2023/07/27 07:32:49;;;;;;;1.60;1.50;;;20.20;61.50;;;;;;5133651;27;20243;-64
2023/07/27 07:35:14;;;;;;;1.70;1.60;;;20.20;61.50;;;;;;5114204;27;20234;-64
2023/07/27 07:37:40;;;;;;;2.80;1.88;;;20.20;61.60;;;;;;5133492;27;20172;-64
2023/07/27 07:40:06;;;;;;;1.80;1.70;;;20.20;61.50;;;;;;5132985;27;20230;-65
2023/07/27 07:42:32;;;;;;;1.50;1.40;;;20.20;61.60;;;;;;5132640;27;20164;-64
2023/07/27 07:44:57;;;;;;;1.52;1.42;;;20.20;61.60;;;;;;5130264;27;20179;-63
2023/07/27 07:47:23;;;;;;;1.35;1.25;;;20.20;62.50;;;;;;5112816;28;20628;-63
2023/07/27 07:49:48;;;;;;;4.10;1.70;;;20.20;61.60;;;;;;5111649;28;20263;-63
2023/07/27 07:52:14;;;;;;;1.80;1.42;;;20.20;61.60;;;;;;5112502;28;20189;-63
2023/07/27 07:54:39;;;;;;;1.80;1.70;;;20.20;61.60;;;;;;5112479;28;20172;-63
2023/07/27 07:57:05;;;;;;;1.90;1.80;;;20.30;61.60;;;;;;5111498;28;20185;-63
2023/07/27 07:59:31;;;;;;;2.00;1.80;;;20.20;61.60;;;;;;5112927;28;20180;-64
2023/07/27 08:01:56;;;;;;;1.88;1.77;;;20.20;61.60;;;;;;5112246;28;20525;-65
2023/07/27 08:04:22;;;;;;;1.58;1.48;;;20.20;61.60;;;;;;5120864;28;20181;-64
2023/07/27 08:06:47;;;;;;;1.63;1.52;;;20.20;61.60;;;;;;5133189;28;20635;-64
2023/07/27 08:09:13;;;;;;;1.73;1.63;;;20.20;62.50;;;;;;5132747;28;20631;-63
2023/07/27 08:11:41;;;;;;;2.17;1.60;;;20.20;61.70;;;;;;5131972;28;20230;-63
2023/07/27 08:14:08;;;;;;;2.08;1.67;;;20.20;61.70;;;;;;5125622;28;20540;-63
2023/07/27 08:16:33;;;;;;;1.70;1.60;;;20.30;61.70;;;;;;5111677;28;20569;-63
2023/07/27 08:19:00;;;;;;;1.77;1.67;;;20.20;61.70;;;;;;5112010;28;20184;-63
2023/07/27 08:21:25;;;;;;;1.88;1.77;;;20.30;61.80;;;;;;5112408;28;20180;-64
2023/07/27 08:23:52;;;;;;;1.90;1.52;;;20.20;61.80;;;;;;5116256;28;20631;-64
2023/07/27 08:26:18;;;;;;;1.75;1.52;;;20.20;61.70;;;;;;5132557;28;20181;-64
2023/07/27 08:28:45;;;;;;;1.30;1.20;;;20.30;61.80;;;;;;5133051;28;20164;-64
2023/07/27 08:31:14;;;;;;;2.20;1.40;;;20.20;61.80;;;;;;5132021;28;20173;-65
2023/07/27 08:33:39;;;;;;;2.67;1.65;;;20.30;62.00;;;;;;5132675;28;20179;-66
2023/07/27 08:36:05;;;;;;;3.30;1.40;;;20.30;62.00;;;;;;5132550;28;20512;-66
2023/07/27 08:38:31;;;;;;;2.25;1.60;;;20.30;61.90;;;;;;5132327;28;20214;-66
2023/07/27 08:41:00;;;;;;;1.83;1.40;;;20.30;61.90;;;;;;5132408;28;20755;-67
2023/07/27 08:43:26;;;;;;;1.63;1.20;;;20.30;62.00;;;;;;5131199;28;20172;-65
2023/07/27 08:45:52;;;;;;;4.28;1.55;;;20.30;61.90;;;;;;5132472;28;20172;-65
2023/07/27 08:48:17;;;;;;;2.92;1.80;;;20.40;62.50;;;;;;5120401;28;20173;-65
2023/07/27 08:50:44;;;;;;;3.63;1.88;;;20.40;62.40;;;;;;5112378;28;20165;-64
2023/07/27 08:53:10;;;;;;;7.03;2.60;;;20.50;62.80;;;;;;5111144;28;20185;-62
2023/07/27 08:55:36;;;;;;;3.83;1.90;;;20.50;63.20;;;;;;5111988;28;20220;-62
2023/07/27 08:58:02;;;;;;;3.40;1.83;;;20.50;63.40;;;;;;5095629;28;20176;-63
2023/07/27 09:00:27;;;;;;;2.08;1.85;;;20.50;63.30;;;;;;5115187;28;20256;-64
2023/07/27 09:02:53;;;;;;;3.55;2.20;;;20.50;63.50;;;;;;5098394;27;20706;-63
2023/07/27 09:05:19;;;;;;;6.00;1.67;;;20.50;63.70;;;;;;5115568;27;20191;-63
2023/07/27 09:07:48;;;;;;;2.78;1.67;;;20.50;63.90;;;;;;5122283;27;20627;-63
2023/07/27 09:10:14;;;;;;;2.17;1.73;;;20.60;63.80;;;;;;5136062;27;20179;-64
2023/07/27 09:12:41;;;;;;;3.20;2.10;;;20.60;63.90;;;;;;5099728;27;20215;-64
2023/07/27 09:15:13;;;;;;;5.05;1.65;;;20.60;63.90;;;;;;5135633;27;20212;-63
2023/07/27 09:17:39;;;;;;;3.15;1.73;;;20.60;64.10;;;;;;5135977;27;20180;-64
2023/07/27 09:20:10;;;;;;;4.10;1.70;;;20.60;64.20;;;;;;5099983;27;20172;-64
2023/07/27 09:22:36;;;;;;;6.00;1.67;;;20.60;64.20;;;;;;5136002;27;20172;-62
2023/07/27 09:25:01;;;;;;;5.65;1.63;;;20.70;64.60;;;;;;5123895;27;20222;-63
2023/07/27 09:27:27;;;;;;;4.88;1.90;;;20.60;64.50;;;;;;5096581;28;20268;-63
2023/07/27 09:29:59;;;;;;;4.47;1.73;;;20.60;64.40;;;;;;5097044;27;20535;-61
2023/07/27 09:32:24;;;;;;;4.55;1.98;;;20.60;64.50;;;;;;5132640;27;20574;-63
2023/07/27 09:34:57;;;;;;;5.50;1.90;;;20.60;64.50;;;;;;5114329;28;20170;-64
2023/07/27 09:37:23;;;;;;;2.65;1.70;;;20.60;64.50;;;;;;5115289;28;20611;-63
2023/07/27 09:39:48;;;;;;;4.35;2.03;;;20.60;64.50;;;;;;5097236;27;20740;-63
2023/07/27 09:42:15;;;;;;;2.28;1.50;;;20.60;64.50;;;;;;5126445;27;20177;-63
2023/07/27 09:44:48;;;;;;;5.25;2.10;;;20.60;64.40;;;;;;5116760;27;20638;-62
2023/07/27 09:47:20;;;;;;;3.58;1.75;;;20.50;64.30;;;;;;5135029;27;20185;-67
2023/07/27 09:49:50;;;;;;;3.60;1.88;;;20.60;64.70;;;;;;5133790;27;20367;-68
2023/07/27 09:52:17;;;;;;;6.15;2.05;;;20.70;64.40;;;;;;5088627;28;20267;-67
2023/07/27 09:54:47;;;;;;;5.00;1.98;;;20.70;64.30;;;;;;5096395;28;20180;-70
2023/07/27 09:57:12;;;;;;;5.90;1.95;;;20.80;64.40;;;;;;5114078;28;20177;-66
2023/07/27 09:59:38;;;;;;;4.38;1.80;;;20.80;64.20;;;;;;5114418;28;20206;-67
2023/07/27 10:02:03;;;;;;;5.18;1.80;;;20.80;64.40;;;;;;5094730;28;20190;-67
2023/07/27 10:04:29;;;;;;;6.40;2.60;;;20.80;64.30;;;;;;5113810;28;20177;-68
2023/07/27 10:06:55;;;;;;;5.90;1.80;;;20.80;64.40;;;;;;5097365;28;20207;-72
2023/07/27 10:09:21;;;;;;;5.00;2.25;;;20.80;64.80;;;;;;5113593;28;20168;-65
2023/07/27 10:11:55;;;;;;;10.65;2.42;;;20.80;64.60;;;;;;5116189;27;20582;-62
2023/07/27 10:14:21;;;;;;;7.80;2.22;;;20.80;64.30;;;;;;5130454;27;20173;-67
2023/07/27 10:17:08;;;;;;;6.28;2.25;;;20.70;64.10;;;;;;5097426;27;20225;-66
2023/07/27 10:19:42;;;;;;;5.78;1.98;;;20.70;64.40;;;;;;5132470;27;20544;-61
2023/07/27 10:22:17;;;;;;;7.97;2.47;;;20.80;64.70;;;;;;5134518;27;20271;-63
2023/07/27 10:24:53;;;;;;;7.25;2.42;;;20.80;64.50;;;;;;5129033;27;20175;-63
2023/07/27 10:27:19;;;;;;;8.35;2.33;;;20.90;64.30;;;;;;5129306;27;20263;-63
2023/07/27 10:29:52;;;;;;;3.25;1.88;;;20.80;64.20;;;;;;5134544;27;20561;-63
2023/07/27 10:32:17;;;;;;;6.85;2.50;;;20.80;64.20;;;;;;5133123;27;20638;-64
2023/07/27 10:34:43;;;;;;;6.20;2.45;;;20.80;64.20;;;;;;5134578;27;20179;-65
2023/07/27 10:37:13;;;;;;;6.90;2.70;;;20.80;64.30;;;;;;5133326;27;20566;-64
2023/07/27 10:39:42;;;;;;;9.23;2.72;;;20.70;64.20;;;;;;5134058;27;20235;-64
2023/07/27 10:42:09;;;;;;;5.80;1.90;;;20.70;64.30;;;;;;5134004;27;20176;-64
2023/07/27 10:44:54;;;;;;;6.07;2.17;;;20.70;64.20;;;;;;5133807;27;20177;-65
2023/07/27 10:47:32;;;;;;;8.82;2.70;;;20.70;64.30;;;;;;5133965;27;20221;-64
2023/07/27 10:49:58;;;;;;;5.07;2.25;;;20.70;64.20;;;;;;5133867;27;20179;-63
2023/07/27 10:52:29;;;;;;;8.30;2.40;;;20.70;64.10;;;;;;5133445;27;20180;-63
2023/07/27 10:54:57;;;;;;;12.10;2.47;;;20.70;64.20;;;;;;5134322;27;20176;-64
2023/07/27 10:57:22;;;;;;;4.50;1.98;;;20.70;63.90;;;;;;5134318;27;20184;-64
2023/07/27 10:59:49;;;;;;;4.47;2.05;;;20.70;64.00;;;;;;5098259;27;20537;-64
2023/07/27 11:02:24;;;;;;;5.53;2.22;;;20.70;64.00;;;;;;5133738;27;20176;-65
2023/07/27 11:05:00;;;;;;;7.03;2.35;;;20.70;64.10;;;;;;5133892;27;20169;-65
2023/07/27 11:07:33;;;;;;;6.55;2.28;;;20.60;64.10;;;;;;5133463;27;20172;-65
2023/07/27 11:10:05;;;;;;;8.82;2.70;;;20.70;64.00;;;;;;5133475;27;20251;-64
2023/07/27 11:12:30;;;;;;;6.32;2.10;;;20.70;64.00;;;;;;5133086;27;20179;-64
2023/07/27 11:15:12;;;;;;;4.45;2.08;;;20.60;63.80;;;;;;5133208;27;20168;-64
2023/07/27 11:17:38;;;;;;;6.05;2.40;;;20.60;63.80;;;;;;5117965;27;20229;-64
2023/07/27 11:20:04;;;;;;;5.50;2.25;;;20.60;63.90;;;;;;5113911;27;20169;-64
2023/07/27 11:22:29;;;;;;;4.43;2.22;;;20.60;63.70;;;;;;5133611;27;20172;-64
2023/07/27 11:24:55;;;;;;;7.15;2.08;;;20.70;63.70;;;;;;5115556;28;20627;-64
2023/07/27 11:27:21;;;;;;;3.05;2.10;;;20.70;63.70;;;;;;5114616;27;20168;-64
2023/07/27 11:29:52;;;;;;;3.70;2.00;;;20.70;63.70;;;;;;5115129;27;20571;-64
2023/07/27 11:32:24;;;;;;;4.82;2.13;;;20.70;63.80;;;;;;5133490;27;20248;-65
2023/07/27 11:34:49;;;;;;;3.58;1.80;;;20.60;63.70;;;;;;5132912;27;20172;-65
2023/07/27 11:37:15;;;;;;;6.00;2.47;;;20.60;63.60;;;;;;5097837;27;20711;-66
2023/07/27 11:39:41;;;;;;;4.22;2.13;;;20.60;64.60;;;;;;5133452;27;20224;-65
2023/07/27 11:42:10;;;;;;;3.15;1.88;;;20.60;63.90;;;;;;5114035;27;20333;-65
2023/07/27 11:44:36;;;;;;;6.55;2.67;;;20.60;63.70;;;;;;5133287;27;20530;-65
2023/07/27 11:47:01;;;;;;;4.50;2.17;;;20.60;63.80;;;;;;5097832;28;20176;-65
2023/07/27 11:49:27;;;;;;;3.83;1.92;;;20.60;63.70;;;;;;5132581;27;20183;-64
2023/07/27 11:51:53;;;;;;;2.90;2.00;;;20.60;63.90;;;;;;5133551;27;20511;-64
2023/07/27 11:54:22;;;;;;;3.90;2.10;;;20.60;63.80;;;;;;5132952;28;20318;-65
2023/07/27 11:56:55;;;;;;;4.15;1.88;;;20.70;63.70;;;;;;5133229;28;20200;-64
2023/07/27 11:59:21;;;;;;;4.25;2.22;;;20.60;63.80;;;;;;5133442;28;20229;-65
2023/07/27 12:01:50;;;;;;;4.13;1.98;;;20.60;63.80;;;;;;5132824;28;20172;-66
2023/07/27 12:04:19;;;;;;;5.00;2.05;;;20.60;63.90;;;;;;5133165;28;20244;-66
2023/07/27 12:06:45;;;;;;;3.20;2.10;;;20.70;64.00;;;;;;5133431;28;20169;-65
2023/07/27 12:09:11;;;;;;;4.90;2.38;;;20.70;63.90;;;;;;5132137;28;20175;-65
2023/07/27 12:11:37;;;;;;;4.97;2.00;;;20.70;63.80;;;;;;5115522;28;20611;-65
2023/07/27 12:14:05;;;;;;;4.85;2.05;;;20.70;63.80;;;;;;5133374;28;20179;-64
2023/07/27 12:16:42;;;;;;;6.43;2.78;;;20.70;63.90;;;;;;5132457;28;20291;-64
2023/07/27 12:19:08;;;;;;;4.70;1.98;;;20.70;64.00;;;;;;5114407;28;20179;-64
2023/07/27 12:21:39;;;;;;;3.60;2.28;;;20.60;64.90;;;;;;5132941;28;20160;-64
2023/07/27 12:24:09;;;;;;;3.05;2.10;;;20.70;64.10;;;;;;5132263;28;20184;-64
2023/07/27 12:26:35;;;;;;;4.00;1.90;;;20.70;65.00;;;;;;5132987;28;20658;-65
2023/07/27 12:29:01;;;;;;;4.22;1.70;;;20.70;64.20;;;;;;5132957;28;20180;-64
2023/07/27 12:31:26;;;;;;;3.25;1.90;;;20.70;64.10;;;;;;5133960;27;20490;-65
2023/07/27 12:33:52;;;;;;;2.90;1.83;;;20.70;64.10;;;;;;5137012;27;20681;-65
2023/07/27 12:36:17;;;;;;;2.47;1.60;;;20.60;64.10;;;;;;5136366;27;20568;-66
2023/07/27 12:38:43;;;;;;;3.90;2.20;;;20.70;64.30;;;;;;5136275;27;20176;-65
2023/07/27 12:41:08;;;;;;;3.08;1.70;;;20.60;64.00;;;;;;5136293;27;20323;-65
2023/07/27 12:43:34;;;;;;;2.40;1.73;;;20.70;65.00;;;;;;5136585;27;20257;-65
2023/07/27 12:45:59;;;;;;;3.10;1.77;;;20.70;64.10;;;;;;5136345;27;20695;-65